createdAt,value
2022-10-04T00:01:32.779Z,56.00
2022-10-04T00:04:11.525Z,55.58
2022-10-04T00:06:48.404Z,55.83
2022-10-04T00:09:19.994Z,55.98
2022-10-04T00:11:48.249Z,55.72
2022-10-04T00:14:17.433Z,56.09
2022-10-04T00:16:44.328Z,56.23
2022-10-04T00:19:19.712Z,55.84
2022-10-04T00:21:52.635Z,55.99
2022-10-04T00:24:26.538Z,56.24
2022-10-04T00:27:19.175Z,55.67
2022-10-04T00:30:01.821Z,56.43
2022-10-04T00:32:40.492Z,55.88
2022-10-04T00:35:25.692Z,55.97
2022-10-04T00:38:01.001Z,56.65
2022-10-04T00:40:36.105Z,56.58
2022-10-04T00:43:14.029Z,56.87
2022-10-04T00:45:50.136Z,57.03
2022-10-04T00:48:47.965Z,56.61
2022-10-04T00:51:48.799Z,56.11
2022-10-04T00:54:31.331Z,57.37
2022-10-04T00:57:07.510Z,57.29
2022-10-04T00:59:37.246Z,57.09
2022-10-04T01:02:14.569Z,57.14
2022-10-04T01:04:53.606Z,57.20
2022-10-04T01:07:29.054Z,57.41
2022-10-04T01:10:00.918Z,57.52
2022-10-04T01:12:44.254Z,57.38
2022-10-04T01:15:43.194Z,56.79
2022-10-04T01:18:14.606Z,58.13
2022-10-04T01:20:52.562Z,57.44
2022-10-04T01:23:41.956Z,57.56
2022-10-04T01:26:26.512Z,57.48
2022-10-04T01:28:54.132Z,58.49
2022-10-04T01:31:21.360Z,58.51
2022-10-04T01:33:48.096Z,58.42
2022-10-04T01:36:14.505Z,56.17
2022-10-04T01:38:41.035Z,58.35
2022-10-04T01:41:09.124Z,58.57
2022-10-04T01:43:39.879Z,58.67
2022-10-04T01:46:22.985Z,58.26
2022-10-04T01:48:49.591Z,58.58
2022-10-04T01:51:24.619Z,58.39
2022-10-04T01:54:12.943Z,57.67
2022-10-04T01:56:46.907Z,58.47
2022-10-04T01:59:23.859Z,58.30
2022-10-04T02:01:50.240Z,58.98
2022-10-04T02:04:23.290Z,58.64
2022-10-04T02:06:54.260Z,59.11
2022-10-04T02:09:33.925Z,58.43
2022-10-04T02:12:01.331Z,58.92
2022-10-04T02:14:33.252Z,59.05
2022-10-04T02:17:03.227Z,59.24
2022-10-04T02:19:36.156Z,58.94
2022-10-04T02:22:04.517Z,59.18
2022-10-04T02:24:35.443Z,59.34
2022-10-04T02:27:01.987Z,59.41
2022-10-04T02:29:28.552Z,59.45
2022-10-04T02:32:13.556Z,59.22
2022-10-04T02:34:40.843Z,59.42
2022-10-04T02:37:08.959Z,59.50
2022-10-04T02:39:47.569Z,59.08
2022-10-04T02:42:37.692Z,59.33
2022-10-04T02:45:21.129Z,58.76
2022-10-04T02:47:53.279Z,59.13
2022-10-04T02:50:24.181Z,59.27
2022-10-04T02:52:58.631Z,59.33
2022-10-04T02:55:31.177Z,59.15
2022-10-04T02:57:58.825Z,59.29
2022-10-04T03:00:29.803Z,59.22
2022-10-04T03:03:34.700Z,58.39
2022-10-04T03:06:18.484Z,58.69
2022-10-04T03:08:49.633Z,59.35
2022-10-04T03:11:18.916Z,59.18
2022-10-04T03:13:49.270Z,59.45
2022-10-04T03:16:16.586Z,59.73
2022-10-04T03:18:44.517Z,59.77
2022-10-04T03:21:14.841Z,59.49
2022-10-04T03:23:42.608Z,59.71
2022-10-04T03:26:38.623Z,58.71
2022-10-04T03:29:11.391Z,59.37
2022-10-04T03:31:48.154Z,59.65
2022-10-04T03:34:22.077Z,59.02
2022-10-04T03:36:50.746Z,59.57
2022-10-04T03:39:40.606Z,58.88
2022-10-04T03:42:13.398Z,59.58
2022-10-04T03:44:42.159Z,59.51
2022-10-04T03:47:33.405Z,59.40
2022-10-04T03:50:05.158Z,59.66
2022-10-04T03:52:34.946Z,59.46
2022-10-04T03:55:05.907Z,59.47
2022-10-04T03:57:33.030Z,59.67
2022-10-04T04:00:01.632Z,59.61
2022-10-04T04:02:50.422Z,58.83
2022-10-04T04:05:25.736Z,59.54
2022-10-04T04:08:12.280Z,59.27
2022-10-04T04:10:43.530Z,59.48
2022-10-04T04:13:31.866Z,59.97
2022-10-04T04:16:02.222Z,61.12
2022-10-04T04:18:35.780Z,60.12
2022-10-04T04:21:04.958Z,64.17
2022-10-04T04:23:37.916Z,61.56
2022-10-04T04:26:23.638Z,60.79
2022-10-04T04:29:24.355Z,59.81
2022-10-04T04:32:04.921Z,60.86
2022-10-04T04:34:35.151Z,60.18
2022-10-04T04:37:04.093Z,59.90
2022-10-04T04:39:37.027Z,60.50
2022-10-04T04:42:11.851Z,60.41
2022-10-04T04:45:00.863Z,60.13
2022-10-04T04:47:34.619Z,58.51
2022-10-04T04:50:08.554Z,58.99
2022-10-04T04:52:36.945Z,58.22
2022-10-04T04:55:04.471Z,58.29
2022-10-04T04:57:33.414Z,59.35
2022-10-04T05:00:01.818Z,59.79
2022-10-04T05:02:36.588Z,59.32
2022-10-04T05:05:24.312Z,57.83
2022-10-04T05:08:23.319Z,58.26
2022-10-04T05:11:08.297Z,58.40
2022-10-04T05:13:47.436Z,58.85
2022-10-04T05:16:18.503Z,59.37
2022-10-04T05:18:46.048Z,59.48
2022-10-04T05:21:20.420Z,57.19
2022-10-04T05:23:47.579Z,58.31
2022-10-04T05:26:14.658Z,57.41
2022-10-04T05:28:41.565Z,58.38
2022-10-04T05:31:49.810Z,58.78
2022-10-04T05:34:40.432Z,58.65
2022-10-04T05:37:25.440Z,56.68
2022-10-04T05:40:02.987Z,57.32
2022-10-04T05:42:45.371Z,54.69
2022-10-04T05:45:17.598Z,55.21
2022-10-04T05:47:47.431Z,54.48
2022-10-04T05:50:35.197Z,54.32
2022-10-04T05:53:33.221Z,54.07
2022-10-04T05:56:12.625Z,52.75
2022-10-04T05:59:08.190Z,53.83
2022-10-04T06:01:47.094Z,53.31
2022-10-04T06:04:25.141Z,53.82
2022-10-04T06:07:00.652Z,54.23
2022-10-04T06:09:57.889Z,54.07
2022-10-04T06:12:44.610Z,54.66
2022-10-04T06:15:31.636Z,54.62
2022-10-04T06:18:07.691Z,54.84
2022-10-04T06:20:50.945Z,55.04
2022-10-04T06:23:18.888Z,55.53
2022-10-04T06:25:50.009Z,55.83
2022-10-04T06:28:30.377Z,55.59
2022-10-04T06:31:21.792Z,55.62
2022-10-04T06:34:24.869Z,55.87
2022-10-04T06:37:13.701Z,56.19
2022-10-04T06:40:01.778Z,56.18
2022-10-04T06:43:02.144Z,56.58
2022-10-04T06:45:37.793Z,56.95
2022-10-04T06:48:16.275Z,57.06
2022-10-04T06:50:55.355Z,57.07
2022-10-04T06:53:29.852Z,56.88
2022-10-04T06:56:08.509Z,57.32
2022-10-04T06:58:56.392Z,56.91
2022-10-04T07:01:30.448Z,56.58
2022-10-04T07:04:45.037Z,56.52
2022-10-04T07:07:38.088Z,56.53
2022-10-04T07:10:23.730Z,56.54
2022-10-04T07:13:10.863Z,56.60
2022-10-04T07:15:49.157Z,56.91
2022-10-04T07:18:22.495Z,57.15
2022-10-04T07:20:57.504Z,56.87
2022-10-04T07:23:32.844Z,57.09
2022-10-04T07:26:06.704Z,56.82
2022-10-04T07:28:59.808Z,56.95
2022-10-04T07:31:30.172Z,56.90
2022-10-04T07:34:03.884Z,56.91
2022-10-04T07:36:41.896Z,57.05
2022-10-04T07:39:23.551Z,56.78
2022-10-04T07:41:54.711Z,56.88
2022-10-04T07:44:35.975Z,56.88
2022-10-04T07:47:22.444Z,56.95
2022-10-04T07:49:53.909Z,57.06
2022-10-04T07:52:26.559Z,57.06
2022-10-04T07:55:39.971Z,56.96
2022-10-04T07:58:24.148Z,57.51
2022-10-04T08:01:28.488Z,56.93
2022-10-04T08:04:14.594Z,57.60
2022-10-04T08:06:44.241Z,56.92
2022-10-04T08:09:35.232Z,57.01
2022-10-04T08:12:23.336Z,56.29
2022-10-04T08:15:15.788Z,56.48
2022-10-04T08:18:19.756Z,56.05
2022-10-04T08:21:01.989Z,55.93
2022-10-04T08:23:53.090Z,55.90
2022-10-04T08:26:58.528Z,55.95
2022-10-04T08:29:47.389Z,56.00
2022-10-04T08:32:35.791Z,55.58
2022-10-04T08:35:28.054Z,55.76
2022-10-04T08:38:23.190Z,55.98
2022-10-04T08:41:10.870Z,55.17
2022-10-04T08:43:43.414Z,55.40
2022-10-04T08:46:26.168Z,55.71
2022-10-04T08:49:30.381Z,55.76
2022-10-04T08:52:10.697Z,54.83
2022-10-04T08:55:14.313Z,54.74
2022-10-04T08:58:14.120Z,54.50
2022-10-04T09:00:58.865Z,54.78
2022-10-04T09:03:47.174Z,55.51
2022-10-04T09:06:41.349Z,54.86
2022-10-04T09:09:46.513Z,54.57
2022-10-04T09:12:20.238Z,53.68
2022-10-04T09:15:32.705Z,53.24
2022-10-04T09:18:14.329Z,53.10
2022-10-04T09:21:01.275Z,53.12
2022-10-04T09:24:03.578Z,52.44
2022-10-04T09:26:47.573Z,51.97
2022-10-04T09:29:41.311Z,52.64
2022-10-04T09:32:22.948Z,51.66
2022-10-04T09:35:12.256Z,50.12
2022-10-04T09:38:02.928Z,51.77
2022-10-04T09:41:08.563Z,51.59
2022-10-04T09:44:05.411Z,51.15
2022-10-04T09:46:48.978Z,49.92
2022-10-04T09:49:50.606Z,51.03
2022-10-04T09:52:47.737Z,50.63
2022-10-04T09:55:58.825Z,50.69
2022-10-04T09:58:34.032Z,48.83
2022-10-04T10:01:09.752Z,48.93
2022-10-04T10:04:09.952Z,50.54
2022-10-04T10:06:49.909Z,49.35
2022-10-04T10:09:43.592Z,49.47
2022-10-04T10:12:39.897Z,49.70
2022-10-04T10:15:23.126Z,48.92
2022-10-04T10:18:11.720Z,49.14
2022-10-04T10:21:08.135Z,48.32
2022-10-04T10:23:56.133Z,47.71
2022-10-04T10:27:02.336Z,49.22
2022-10-04T10:29:45.289Z,47.14
2022-10-04T10:32:44.890Z,47.43
2022-10-04T10:35:49.179Z,47.71
2022-10-04T10:38:40.388Z,45.93
2022-10-04T10:41:46.625Z,47.35
2022-10-04T10:44:29.718Z,45.69
2022-10-04T10:47:03.270Z,45.17
2022-10-04T10:49:44.334Z,46.58
2022-10-04T10:52:43.686Z,45.99
2022-10-04T10:55:22.689Z,44.80
2022-10-04T10:58:17.249Z,44.76
2022-10-04T11:01:06.973Z,45.69
2022-10-04T11:03:54.001Z,45.34
2022-10-04T11:06:39.436Z,45.91
2022-10-04T11:09:24.410Z,42.71
2022-10-04T11:12:15.522Z,44.20
2022-10-04T11:15:16.246Z,45.18
2022-10-04T11:18:08.498Z,44.74
2022-10-04T11:21:11.251Z,45.26
2022-10-04T11:24:14.864Z,45.00
2022-10-04T11:26:46.737Z,43.01
2022-10-04T11:29:25.105Z,43.85
2022-10-04T11:32:00.594Z,43.64
2022-10-04T11:34:46.361Z,44.31
2022-10-04T11:37:27.912Z,43.53
2022-10-04T11:40:13.183Z,43.39
2022-10-04T11:42:56.268Z,42.13
2022-10-04T11:45:55.848Z,43.94
2022-10-04T11:48:56.045Z,43.52
2022-10-04T11:51:37.758Z,43.46
2022-10-04T11:54:41.744Z,42.71
2022-10-04T11:57:32.169Z,41.23
2022-10-04T12:00:11.198Z,41.37
2022-10-04T12:02:50.235Z,42.11
2022-10-04T12:05:35.079Z,42.78
2022-10-04T12:08:52.399Z,42.60
2022-10-04T12:11:47.851Z,41.84
2022-10-04T12:14:40.804Z,41.21
2022-10-04T12:17:29.931Z,39.65
2022-10-04T12:20:36.035Z,42.40
2022-10-04T12:23:11.454Z,40.00
2022-10-04T12:26:08.222Z,42.64
2022-10-04T12:28:52.976Z,42.04
2022-10-04T12:31:31.744Z,41.25
2022-10-04T12:34:29.429Z,41.95
2022-10-04T12:37:17.068Z,41.78
2022-10-04T12:40:12.056Z,41.81
2022-10-04T12:43:10.155Z,41.52
2022-10-04T12:45:48.511Z,41.08
2022-10-04T12:48:21.002Z,38.60
2022-10-04T12:50:47.405Z,38.00
2022-10-04T12:53:20.268Z,38.82
2022-10-04T12:56:20.815Z,40.56
2022-10-04T12:59:02.578Z,39.91
2022-10-04T13:02:05.640Z,40.43
2022-10-04T13:04:39.674Z,38.02
2022-10-04T13:07:25.752Z,37.79
2022-10-04T13:10:22.450Z,38.35
2022-10-04T13:13:22.641Z,40.15
2022-10-04T13:19:17.871Z,39.26
2022-10-04T13:22:10.256Z,38.13
2022-10-04T13:25:07.866Z,39.68
2022-10-04T13:28:02.456Z,39.33
2022-10-04T13:30:35.056Z,38.76
2022-10-04T13:33:35.673Z,39.52
2022-10-04T13:36:29.387Z,39.96
2022-10-04T13:38:58.801Z,37.85
2022-10-04T13:41:25.394Z,37.67
2022-10-04T13:44:06.341Z,39.13
2022-10-04T13:47:10.917Z,37.14
2022-10-04T13:50:02.516Z,39.89
2022-10-04T13:53:13.273Z,40.22
2022-10-04T13:56:10.518Z,38.61
2022-10-04T13:58:51.918Z,38.48
2022-10-04T14:01:31.314Z,38.21
2022-10-04T14:04:42.583Z,39.36
2022-10-04T14:07:34.487Z,38.73
2022-10-04T14:10:22.411Z,36.98
2022-10-04T14:12:48.806Z,36.58
2022-10-04T14:15:26.926Z,37.48
2022-10-04T14:18:32.085Z,37.81
2022-10-04T14:21:18.209Z,37.29
2022-10-04T14:24:08.827Z,37.44
2022-10-04T14:26:44.565Z,37.56
2022-10-04T14:29:46.272Z,37.75
2022-10-04T14:32:30.677Z,38.19
2022-10-04T14:35:20.374Z,36.02
2022-10-04T14:38:08.432Z,35.63
2022-10-04T14:40:56.817Z,37.27
2022-10-04T14:43:53.756Z,37.19
2022-10-04T14:46:44.127Z,36.27
2022-10-04T14:49:38.335Z,36.92
2022-10-04T14:52:29.143Z,34.94
2022-10-04T14:55:10.483Z,37.04
2022-10-04T14:58:13.997Z,37.09
2022-10-04T15:01:01.846Z,37.63
2022-10-04T15:03:48.354Z,37.53
2022-10-04T15:06:22.159Z,36.30
2022-10-04T15:09:18.900Z,36.55
2022-10-04T15:12:32.599Z,37.12
2022-10-04T15:15:14.936Z,35.99
2022-10-04T15:17:59.751Z,36.65
2022-10-04T15:20:33.829Z,35.68
2022-10-04T15:23:29.365Z,36.91
2022-10-04T15:26:45.274Z,37.71
2022-10-04T15:29:23.855Z,36.49
2022-10-04T15:32:07.317Z,36.55
2022-10-04T15:34:58.002Z,36.99
2022-10-04T15:37:44.233Z,36.41
2022-10-04T15:40:24.156Z,36.45
2022-10-04T15:43:50.181Z,37.70
2022-10-04T15:46:28.966Z,37.32
2022-10-04T15:49:13.033Z,37.14
2022-10-04T15:51:48.690Z,36.82
2022-10-04T15:54:34.096Z,37.78
2022-10-04T15:57:19.454Z,37.06
2022-10-04T15:59:55.622Z,37.64
2022-10-04T16:02:40.426Z,37.04
2022-10-04T16:05:22.953Z,38.02
2022-10-04T16:08:03.800Z,37.45
2022-10-04T16:11:09.169Z,37.84
2022-10-04T16:13:57.043Z,37.97
2022-10-04T16:16:29.336Z,37.69
2022-10-04T16:19:19.324Z,37.57
2022-10-04T16:22:11.176Z,38.13
2022-10-04T16:24:57.706Z,38.15
2022-10-04T16:27:57.082Z,38.75
2022-10-04T16:31:08.940Z,38.74
2022-10-04T16:33:43.118Z,38.57
2022-10-04T16:36:17.309Z,38.29
2022-10-04T16:39:06.915Z,38.50
2022-10-04T16:41:42.245Z,38.98
2022-10-04T16:44:23.789Z,39.10
2022-10-04T16:46:52.266Z,39.04
2022-10-04T16:49:41.198Z,39.23
2022-10-04T16:52:19.855Z,39.42
2022-10-04T16:54:57.961Z,39.67
2022-10-04T16:57:27.818Z,39.50
2022-10-04T16:59:57.263Z,39.71
2022-10-04T17:02:45.925Z,39.75
2022-10-04T17:06:11.787Z,40.23
2022-10-04T17:09:09.143Z,40.22
2022-10-04T17:11:41.239Z,40.13
2022-10-04T17:14:51.328Z,40.59
2022-10-04T17:17:32.133Z,40.60
2022-10-04T17:20:29.651Z,40.54
2022-10-04T17:23:13.722Z,40.45
2022-10-04T17:26:17.870Z,40.74
2022-10-04T17:28:57.506Z,40.60
2022-10-04T17:31:37.560Z,40.80
2022-10-04T17:34:30.303Z,40.54
2022-10-04T17:37:11.210Z,40.62
2022-10-04T17:39:48.313Z,40.71
2022-10-04T17:42:41.949Z,40.98
2022-10-04T17:45:46.292Z,40.95
2022-10-04T17:48:35.842Z,40.89
2022-10-04T17:51:27.451Z,41.00
2022-10-04T17:54:19.554Z,41.14
2022-10-04T17:56:52.797Z,41.21
2022-10-04T17:59:30.718Z,41.37
2022-10-04T18:02:11.044Z,41.03
2022-10-04T18:04:48.790Z,41.27
2022-10-04T18:07:18.701Z,41.48
2022-10-04T18:09:52.545Z,41.58
2022-10-04T18:12:30.245Z,41.23
2022-10-04T18:15:25.920Z,41.73
2022-10-04T18:18:06.748Z,41.37
2022-10-04T18:20:59.858Z,41.44
2022-10-04T18:23:29.122Z,41.73
2022-10-04T18:26:05.084Z,41.82
2022-10-04T18:28:34.761Z,41.60
2022-10-04T18:31:14.274Z,41.32
2022-10-04T18:33:40.697Z,41.32
2022-10-04T18:36:31.854Z,41.66
2022-10-04T18:39:04.173Z,41.61
2022-10-04T18:41:52.027Z,41.89
2022-10-04T18:44:27.387Z,41.63
2022-10-04T18:46:57.728Z,42.03
2022-10-04T18:49:28.500Z,41.95
2022-10-04T18:52:22.748Z,42.05
2022-10-04T18:55:20.942Z,41.86
2022-10-04T18:58:23.910Z,41.87
2022-10-04T19:01:24.318Z,42.00
2022-10-04T19:03:59.688Z,42.49
2022-10-04T19:06:38.765Z,42.45
2022-10-04T19:09:26.764Z,42.36
2022-10-04T19:12:00.217Z,42.90
2022-10-04T19:14:47.588Z,42.84
2022-10-04T19:17:45.320Z,42.55
2022-10-04T19:20:23.307Z,42.86
2022-10-04T19:23:07.498Z,43.31
2022-10-04T19:25:41.019Z,43.73
2022-10-04T19:28:18.378Z,43.65
2022-10-04T19:30:48.409Z,44.31
2022-10-04T19:33:20.573Z,44.34
2022-10-04T19:36:09.911Z,44.33
2022-10-04T19:39:02.799Z,44.39
2022-10-04T19:41:37.740Z,44.91
2022-10-04T19:44:25.544Z,44.66
2022-10-04T19:47:01.200Z,45.38
2022-10-04T19:49:33.611Z,45.67
2022-10-04T19:52:27.403Z,44.95
2022-10-04T19:55:18.859Z,45.61
2022-10-04T19:57:51.344Z,45.94
2022-10-04T20:00:20.287Z,46.03
2022-10-04T20:02:48.882Z,45.86
2022-10-04T20:05:24.721Z,45.84
2022-10-04T20:07:56.374Z,45.85
2022-10-04T20:10:30.531Z,45.85
2022-10-04T20:13:21.372Z,45.51
2022-10-04T20:15:56.239Z,45.83
2022-10-04T20:18:34.610Z,45.82
2022-10-04T20:21:01.459Z,46.01
2022-10-04T20:23:40.310Z,45.78
2022-10-04T20:26:08.672Z,46.31
2022-10-04T20:28:41.851Z,46.30
2022-10-04T20:31:29.393Z,46.35
2022-10-04T21:47:41.864Z,47.85
2022-10-04T21:50:08.431Z,45.49
2022-10-04T21:52:34.992Z,48.08
2022-10-04T21:55:01.367Z,45.85
2022-10-04T21:57:30.741Z,48.48
2022-10-04T21:59:59.720Z,48.46
2022-10-04T22:02:26.282Z,48.88
2022-10-04T22:04:52.672Z,46.35
2022-10-04T22:07:19.131Z,48.65
2022-10-04T22:09:45.551Z,48.60
2022-10-04T22:12:12.055Z,48.52
2022-10-04T22:14:38.464Z,48.64
2022-10-04T22:17:04.938Z,48.78
2022-10-04T22:19:31.351Z,46.30
2022-10-04T22:21:57.892Z,48.80
2022-10-04T22:24:24.236Z,46.32
2022-10-04T22:26:50.831Z,48.32
2022-10-04T22:29:17.933Z,46.51
2022-10-04T22:31:51.441Z,48.32
2022-10-04T22:34:20.505Z,48.94
2022-10-04T22:36:48.987Z,49.27
2022-10-04T22:39:18.005Z,49.20
2022-10-04T22:41:47.296Z,49.08
2022-10-04T22:44:19.135Z,49.55
2022-10-04T22:46:50.487Z,49.45
2022-10-04T22:49:20.381Z,49.81
2022-10-04T22:51:49.272Z,49.40
2022-10-04T22:54:17.771Z,49.82
2022-10-04T22:56:44.707Z,49.89
2022-10-04T22:59:13.841Z,49.74
2022-10-04T23:01:40.329Z,49.56
2022-10-04T23:04:16.596Z,49.41
2022-10-04T23:06:44.168Z,50.10
2022-10-04T23:09:10.861Z,49.74
2022-10-04T23:11:37.318Z,50.38
2022-10-04T23:14:03.976Z,50.58
2022-10-04T23:16:30.505Z,48.23
2022-10-04T23:19:20.481Z,49.69
2022-10-04T23:21:49.837Z,50.57
2022-10-04T23:24:19.925Z,51.97
2022-10-04T23:26:50.283Z,49.90
2022-10-04T23:29:21.683Z,51.87
2022-10-04T23:31:49.813Z,49.99
2022-10-04T23:34:35.703Z,52.66
2022-10-04T23:37:03.297Z,49.99
2022-10-04T23:39:34.809Z,50.54
2022-10-04T23:42:05.345Z,50.23
2022-10-04T23:44:37.261Z,49.89
2022-10-04T23:47:11.346Z,51.52
2022-10-04T23:49:37.837Z,50.43
2022-10-04T23:52:04.418Z,50.11
2022-10-04T23:54:30.805Z,48.38
2022-10-04T23:56:57.205Z,49.91
2022-10-04T23:59:25.855Z,52.37
